KDNL/DNL METAR and TAF weather

Enter ICAO airport designator
Station Type Date Time Source
KDNL METAR 2021/02/25 01:53 UTC NOAA

KDNL 250153Z AUTO 23003KT 10SM CLR 17/01 A3008 RMK AO2 SLP184 T01720011


Station Type Date Time Source
KDNL Decoded METAR 2021/02/25 01:53 UTC NOAA

AUGUSTA DANIEL FIELD, GA, United States (KDNL) 33-28N 82-02W 130M
Feb 24, 2021 - 08:53 PM EST / 2021.02.25 0153 UTC
Wind: from the SW (230 degrees) at 3 MPH (3 KT):0
Visibility: 10 mile(s):0
Sky conditions: clear
Temperature: 63.0 F (17.2 C)
Dew Point: 34.0 F (1.1 C)
Relative Humidity: 33%
Pressure (altimeter): 30.08 in. Hg (1018 hPa)
ob: KDNL 250153Z AUTO 23003KT 10SM CLR 17/01 A3008 RMK AO2 SLP184 T01720011
cycle: 2

Station Type Date Time Source
KDNL TAF 2021/02/24 21:36 UTC NOAA

TAF
AMD KDNL 242033Z 2421/2518 22011G18KT P6SM SKC
FM242300 21004KT P6SM FEW250
FM251500 29005KT P6SM SCT150

Example: see airport list